createdAt,value
2018-06-24T00:00:22.281Z,19.8
2018-06-24T00:01:12.703Z,19.8
2018-06-24T00:02:02.415Z,19.8
2018-06-24T00:02:52.504Z,19.7
2018-06-24T00:03:43.095Z,19.8
2018-06-24T00:04:32.867Z,19.8
2018-06-24T00:05:22.663Z,19.8
2018-06-24T00:06:13.035Z,19.8
2018-06-24T00:07:03.393Z,19.8
2018-06-24T00:07:52.622Z,19.8
2018-06-24T00:08:43.203Z,19.8
2018-06-24T00:09:32.734Z,19.8
2018-06-24T00:10:23.307Z,19.8
2018-06-24T00:11:13.641Z,19.8
2018-06-24T00:12:02.873Z,19.8
2018-06-24T00:12:53.474Z,19.8
2018-06-24T00:13:43.955Z,19.8
2018-06-24T00:14:33.103Z,19.8
2018-06-24T00:15:23.753Z,19.8
2018-06-24T00:16:13.482Z,19.8
2018-06-24T00:17:03.296Z,19.8
2018-06-24T00:17:53.613Z,19.8
2018-06-24T00:18:42.832Z,19.8
2018-06-24T00:19:33.171Z,19.8
2018-06-24T00:20:23.801Z,19.8
2018-06-24T00:21:13.557Z,19.8
2018-06-24T00:22:03.622Z,19.8
2018-06-24T00:22:53.125Z,19.7
2018-06-24T00:23:43.822Z,19.8
2018-06-24T00:24:34.083Z,19.8
2018-06-24T00:25:24.263Z,19.8
2018-06-24T00:26:13.986Z,19.8
2018-06-24T00:27:04.587Z,19.8
2018-06-24T00:27:54.607Z,19.8
2018-06-24T00:28:44.159Z,19.7
2018-06-24T00:29:34.277Z,19.8
2018-06-24T00:30:24.540Z,19.8
2018-06-24T00:31:14.203Z,19.7
2018-06-24T00:32:03.975Z,19.8
2018-06-24T00:32:53.719Z,19.8
2018-06-24T00:33:44.597Z,19.8
2018-06-24T00:34:34.355Z,19.7
2018-06-24T00:35:24.709Z,19.7
2018-06-24T00:36:15.052Z,19.7
2018-06-24T00:37:05.498Z,19.8
2018-06-24T00:37:55.397Z,19.7
2018-06-24T00:38:45.435Z,19.7
2018-06-24T00:39:35.497Z,19.7
2018-06-24T00:40:25.363Z,19.7
2018-06-24T00:41:15.634Z,19.8
2018-06-24T00:42:05.408Z,19.7
2018-06-24T00:42:55.802Z,19.7
2018-06-24T00:43:45.271Z,19.7
2018-06-24T00:44:35.112Z,19.7
2018-06-24T00:45:25.924Z,19.7
2018-06-24T00:46:15.789Z,19.7
2018-06-24T00:47:06.358Z,19.7
2018-06-24T00:47:56.434Z,19.7
2018-06-24T00:48:46.182Z,19.7
2018-06-24T00:49:36.303Z,19.8
2018-06-24T00:50:26.042Z,19.8
2018-06-24T00:51:16.072Z,19.7
2018-06-24T00:52:06.165Z,19.7
2018-06-24T00:52:56.755Z,19.7
2018-06-24T00:53:46.656Z,19.7
2018-06-24T00:54:36.094Z,19.7
2018-06-24T00:55:26.674Z,19.8
2018-06-24T00:56:16.814Z,19.7
2018-06-24T00:57:06.793Z,19.7
2018-06-24T00:57:56.919Z,19.7
2018-06-24T00:58:46.681Z,19.7
2018-06-24T00:59:36.679Z,19.7
2018-06-24T01:00:27.135Z,19.7
2018-06-24T01:01:17.430Z,19.7
2018-06-24T01:02:07.232Z,19.7
2018-06-24T01:02:56.201Z,19.7
2018-06-24T01:03:47.109Z,19.7
2018-06-24T01:04:36.864Z,19.7
2018-06-24T01:05:26.713Z,19.7
2018-06-24T01:06:16.475Z,19.7
2018-06-24T01:07:06.196Z,19.7
2018-06-24T01:07:57.693Z,19.7
2018-06-24T01:08:47.671Z,19.7
2018-06-24T01:09:37.475Z,19.7
2018-06-24T01:10:26.738Z,19.6
2018-06-24T01:11:17.385Z,19.7
2018-06-24T01:12:06.900Z,19.7
2018-06-24T01:12:58.048Z,19.7
2018-06-24T01:13:47.263Z,19.7
2018-06-24T01:14:37.837Z,19.7
2018-06-24T01:15:27.924Z,19.7
2018-06-24T01:16:17.691Z,19.7
2018-06-24T01:17:07.785Z,19.7
2018-06-24T01:17:58.125Z,19.7
2018-06-24T01:18:48.530Z,19.7
2018-06-24T01:19:38.555Z,19.7
2018-06-24T01:20:28.061Z,19.7
2018-06-24T01:21:18.628Z,19.7
2018-06-24T01:22:08.760Z,19.7
2018-06-24T01:22:58.741Z,19.6
2018-06-24T01:23:49.062Z,19.7
2018-06-24T01:24:38.879Z,19.7
2018-06-24T01:25:28.659Z,19.7
2018-06-24T01:26:18.702Z,19.6
2018-06-24T01:27:08.474Z,19.7
2018-06-24T01:27:58.905Z,19.7
2018-06-24T01:28:48.090Z,19.6
2018-06-24T01:29:39.273Z,19.6
2018-06-24T01:30:28.462Z,19.6
2018-06-24T01:31:18.293Z,19.6
2018-06-24T01:32:08.624Z,19.6
2018-06-24T01:32:59.284Z,19.6
2018-06-24T01:33:48.742Z,19.7
2018-06-24T01:34:39.934Z,19.6
2018-06-24T01:35:28.595Z,19.6
2018-06-24T01:36:18.936Z,19.6
2018-06-24T01:37:09.084Z,19.6
2018-06-24T01:37:59.087Z,19.7
2018-06-24T01:38:50.201Z,19.6
2018-06-24T01:39:39.440Z,19.6
2018-06-24T01:40:30.386Z,19.6
2018-06-24T01:41:20.437Z,19.6
2018-06-24T01:42:10.163Z,19.6
2018-06-24T01:43:00.513Z,19.6
2018-06-24T01:43:50.619Z,19.6
2018-06-24T01:44:40.400Z,19.6
2018-06-24T01:45:30.143Z,19.7
2018-06-24T01:46:20.767Z,19.6
2018-06-24T01:47:10.313Z,19.6
2018-06-24T01:48:00.873Z,19.6
2018-06-24T01:48:50.943Z,19.6
2018-06-24T01:49:40.508Z,19.6
2018-06-24T01:50:30.246Z,19.6
2018-06-24T01:51:20.773Z,19.6
2018-06-24T01:52:10.676Z,19.6
2018-06-24T01:53:00.128Z,19.6
2018-06-24T01:53:50.005Z,19.6
2018-06-24T01:54:40.610Z,19.6
2018-06-24T01:55:30.692Z,19.6
2018-06-24T01:56:21.594Z,19.6
2018-06-24T01:57:10.495Z,19.6
2018-06-24T01:58:01.123Z,19.6
2018-06-24T01:58:51.158Z,19.6
2018-06-24T01:59:41.029Z,19.6
2018-06-24T02:00:31.061Z,19.6
2018-06-24T02:01:20.761Z,19.6
2018-06-24T02:02:11.432Z,19.6
2018-06-24T02:03:01.845Z,19.6
2018-06-24T02:03:51.246Z,19.6
2018-06-24T02:04:41.349Z,19.6
2018-06-24T02:05:30.806Z,19.6
2018-06-24T02:06:22.039Z,19.6
2018-06-24T02:07:12.074Z,19.6
2018-06-24T02:08:01.273Z,19.6
2018-06-24T02:08:52.469Z,19.6
2018-06-24T02:09:41.659Z,19.6
2018-06-24T02:10:31.808Z,19.6
2018-06-24T02:11:21.517Z,19.6
2018-06-24T02:12:11.667Z,19.6
2018-06-24T02:13:01.997Z,19.6
2018-06-24T02:13:52.869Z,19.6
2018-06-24T02:14:43.002Z,19.6
2018-06-24T02:15:32.122Z,19.6
2018-06-24T02:16:23.042Z,19.6
2018-06-24T02:17:12.792Z,19.6
2018-06-24T02:18:02.546Z,19.6
2018-06-24T02:18:52.573Z,19.6
2018-06-24T02:19:42.988Z,19.6
2018-06-24T02:20:33.034Z,19.6
2018-06-24T02:21:22.276Z,19.6
2018-06-24T02:22:13.203Z,19.6
2018-06-24T02:23:02.735Z,19.6
2018-06-24T02:23:53.571Z,19.6
2018-06-24T02:24:42.825Z,19.6
2018-06-24T02:25:32.968Z,19.6
2018-06-24T02:26:23.250Z,19.6
2018-06-24T02:27:13.268Z,19.6
2018-06-24T02:28:03.374Z,19.6
2018-06-24T02:28:53.426Z,19.6
2018-06-24T02:29:43.235Z,19.6
2018-06-24T02:30:33.591Z,19.6
2018-06-24T02:31:23.881Z,19.6
2018-06-24T02:32:13.433Z,19.6
2018-06-24T02:33:03.729Z,19.6
2018-06-24T02:33:54.104Z,19.6
2018-06-24T02:34:43.022Z,19.6
2018-06-24T02:35:34.245Z,19.6
2018-06-24T02:36:23.724Z,19.6
2018-06-24T02:37:14.333Z,19.6
2018-06-24T02:38:03.527Z,19.6
2018-06-24T02:38:53.890Z,19.6
2018-06-24T02:39:44.177Z,19.6
2018-06-24T02:40:34.278Z,19.6
2018-06-24T02:41:23.489Z,19.6
2018-06-24T02:42:14.937Z,19.6
2018-06-24T02:43:05.049Z,19.6
2018-06-24T02:43:54.789Z,19.6
2018-06-24T02:44:44.553Z,19.6
2018-06-24T02:45:34.948Z,19.6
2018-06-24T02:46:25.291Z,19.6
2018-06-24T02:47:14.747Z,19.6
2018-06-24T02:48:04.586Z,19.6
2018-06-24T02:48:55.172Z,19.6
2018-06-24T02:49:45.533Z,19.6
2018-06-24T02:50:35.177Z,19.6
2018-06-24T02:51:23.815Z,19.6
2018-06-24T02:52:15.456Z,19.6
2018-06-24T02:53:03.944Z,19.6
2018-06-24T02:53:55.459Z,19.6
2018-06-24T02:54:44.331Z,19.6
2018-06-24T02:55:35.025Z,19.6
2018-06-24T02:56:25.269Z,19.6
2018-06-24T02:57:15.575Z,19.6
2018-06-24T02:58:05.109Z,19.6
2018-06-24T02:58:55.725Z,19.5
2018-06-24T02:59:45.759Z,19.6
2018-06-24T03:00:35.547Z,19.5
2018-06-24T03:01:25.074Z,19.5
2018-06-24T03:02:16.011Z,19.5
2018-06-24T03:03:05.259Z,19.5
2018-06-24T03:03:55.451Z,19.6
2018-06-24T03:04:45.269Z,19.6
2018-06-24T03:05:35.413Z,19.6
2018-06-24T03:06:25.728Z,19.6
2018-06-24T03:07:16.011Z,19.5
2018-06-24T03:08:06.436Z,19.5
2018-06-24T03:08:55.113Z,19.5
2018-06-24T03:09:46.488Z,19.5
2018-06-24T03:10:36.960Z,19.6
2018-06-24T03:11:26.360Z,19.5
2018-06-24T03:12:16.381Z,19.5
2018-06-24T03:13:06.471Z,19.5
2018-06-24T03:13:56.531Z,19.5
2018-06-24T03:14:46.648Z,19.5
2018-06-24T03:15:36.962Z,19.5
2018-06-24T03:16:26.436Z,19.5
2018-06-24T03:17:16.208Z,19.5
2018-06-24T03:18:06.327Z,19.5
2018-06-24T03:18:57.647Z,19.6
2018-06-24T03:19:47.810Z,19.5
2018-06-24T03:20:37.584Z,19.5
2018-06-24T03:21:27.105Z,19.5
2018-06-24T03:22:17.678Z,19.5
2018-06-24T03:23:06.950Z,19.5
2018-06-24T03:23:55.907Z,19.5
2018-06-24T03:24:47.367Z,19.5
2018-06-24T03:25:37.505Z,19.5
2018-06-24T03:26:27.141Z,19.5
2018-06-24T03:27:17.717Z,19.5
2018-06-24T03:28:08.093Z,19.5
2018-06-24T03:28:58.106Z,19.5
2018-06-24T03:29:47.076Z,19.5
2018-06-24T03:30:38.240Z,19.5
2018-06-24T03:31:28.091Z,19.5
2018-06-24T03:32:17.121Z,19.5
2018-06-24T03:33:08.782Z,19.5
2018-06-24T03:33:58.480Z,19.5
2018-06-24T03:34:48.555Z,19.5
2018-06-24T03:35:38.981Z,19.5
2018-06-24T03:36:28.801Z,19.5
2018-06-24T03:37:18.316Z,19.5
2018-06-24T03:38:08.641Z,19.5
2018-06-24T03:38:58.930Z,19.5
2018-06-24T03:39:48.941Z,19.5
2018-06-24T03:40:38.777Z,19.5
2018-06-24T03:41:28.590Z,19.5
2018-06-24T03:42:18.101Z,19.4
2018-06-24T03:43:09.009Z,19.5
2018-06-24T03:43:58.563Z,19.5
2018-06-24T03:44:48.269Z,19.5
2018-06-24T03:45:39.370Z,19.5
2018-06-24T03:46:28.399Z,19.4
2018-06-24T03:47:18.836Z,19.5
2018-06-24T03:48:09.368Z,19.5
2018-06-24T03:48:59.136Z,19.5
2018-06-24T03:49:49.224Z,19.5
2018-06-24T03:50:40.075Z,19.5
2018-06-24T03:51:29.084Z,19.4
2018-06-24T03:52:19.641Z,19.4
2018-06-24T03:53:09.732Z,19.5
2018-06-24T03:53:59.573Z,19.4
2018-06-24T03:54:48.486Z,19.4
2018-06-24T03:55:39.416Z,19.4
2018-06-24T03:56:28.953Z,19.4
2018-06-24T03:57:19.483Z,19.4
2018-06-24T03:58:11.023Z,19.4
2018-06-24T03:58:59.117Z,19.4
2018-06-24T03:59:50.229Z,19.5
2018-06-24T04:00:39.465Z,19.4
2018-06-24T04:01:29.850Z,19.4
2018-06-24T04:02:19.365Z,19.4
2018-06-24T04:03:10.431Z,19.4
2018-06-24T04:04:01.047Z,19.4
2018-06-24T04:04:52.254Z,19.4
2018-06-24T04:05:39.513Z,19.4
2018-06-24T04:06:29.913Z,19.4
2018-06-24T04:07:21.361Z,19.4
2018-06-24T04:08:11.477Z,19.4
2018-06-24T04:09:00.902Z,19.4
2018-06-24T04:09:51.239Z,19.4
2018-06-24T04:10:40.825Z,19.4
2018-06-24T04:11:30.607Z,19.4
2018-06-24T04:12:20.847Z,19.4
2018-06-24T04:13:10.059Z,19.4
2018-06-24T04:14:01.528Z,19.4
2018-06-24T04:14:51.049Z,19.4
2018-06-24T04:15:41.384Z,19.4
2018-06-24T04:16:31.459Z,19.4
2018-06-24T04:17:21.189Z,19.4
2018-06-24T04:18:11.320Z,19.4
2018-06-24T04:19:01.288Z,19.4
2018-06-24T04:19:51.737Z,19.4
2018-06-24T04:20:41.747Z,19.4
2018-06-24T04:21:32.407Z,19.4
2018-06-24T04:22:22.236Z,19.4
2018-06-24T04:23:11.673Z,19.4
2018-06-24T04:24:01.663Z,19.4
2018-06-24T04:24:51.201Z,19.4
2018-06-24T04:25:43.295Z,19.4
2018-06-24T04:26:31.120Z,19.4
2018-06-24T04:27:22.303Z,19.4
2018-06-24T04:28:12.125Z,19.4
2018-06-24T04:29:02.419Z,19.4
2018-06-24T04:29:52.475Z,19.4
2018-06-24T04:30:42.552Z,19.4
2018-06-24T04:31:31.769Z,19.4
2018-06-24T04:32:22.727Z,19.4
2018-06-24T04:33:12.200Z,19.4
2018-06-24T04:34:01.957Z,19.4
2018-06-24T04:34:52.547Z,19.4
2018-06-24T04:35:43.469Z,19.4
2018-06-24T04:36:32.630Z,19.4
2018-06-24T04:37:22.453Z,19.4
2018-06-24T04:38:13.053Z,19.4
2018-06-24T04:39:03.747Z,19.4
2018-06-24T04:39:53.793Z,19.4
2018-06-24T04:40:42.967Z,19.4
2018-06-24T04:41:33.283Z,19.4
2018-06-24T04:42:23.096Z,19.4
2018-06-24T04:43:12.911Z,19.4
2018-06-24T04:44:03.474Z,19.4
2018-06-24T04:44:54.123Z,19.4
2018-06-24T04:45:43.880Z,19.4
2018-06-24T04:46:33.670Z,19.4
2018-06-24T04:47:24.272Z,19.4
2018-06-24T04:48:14.175Z,19.4
2018-06-24T04:49:04.232Z,19.4
2018-06-24T04:49:54.503Z,19.4
2018-06-24T04:50:44.518Z,19.4
2018-06-24T04:51:34.310Z,19.4
2018-06-24T04:52:23.868Z,19.4
2018-06-24T04:53:14.243Z,19.4
2018-06-24T04:54:04.001Z,19.4
2018-06-24T04:54:53.542Z,19.4
2018-06-24T04:55:44.632Z,19.4
2018-06-24T04:56:34.509Z,19.4
2018-06-24T04:57:24.477Z,19.4
2018-06-24T04:58:13.964Z,19.4
2018-06-24T04:59:04.880Z,19.4
2018-06-24T04:59:54.092Z,19.4
2018-06-24T05:00:45.032Z,19.4
2018-06-24T05:01:34.010Z,19.4
2018-06-24T05:02:24.336Z,19.4
2018-06-24T05:03:14.052Z,19.4
2018-06-24T05:04:04.996Z,19.4
2018-06-24T05:04:55.323Z,19.4
2018-06-24T05:05:45.501Z,19.4
2018-06-24T05:06:36.421Z,19.4
2018-06-24T05:07:25.782Z,19.4
2018-06-24T05:08:15.552Z,19.4
2018-06-24T05:09:05.102Z,19.4
2018-06-24T05:09:54.584Z,19.4
2018-06-24T05:10:46.044Z,19.4
2018-06-24T05:11:35.850Z,19.4
2018-06-24T05:12:26.124Z,19.4
2018-06-24T05:13:15.946Z,19.4
2018-06-24T05:14:05.242Z,19.4
2018-06-24T05:14:56.472Z,19.4
2018-06-24T05:15:46.443Z,19.4
2018-06-24T05:16:35.963Z,19.4
2018-06-24T05:17:25.707Z,19.4
2018-06-24T05:18:15.228Z,19.4
2018-06-24T05:19:05.350Z,19.4
2018-06-24T05:19:56.110Z,19.4
2018-06-24T05:20:46.796Z,19.4
2018-06-24T05:21:36.877Z,19.4
2018-06-24T05:22:25.804Z,19.4
2018-06-24T05:23:16.213Z,19.4
2018-06-24T05:24:06.793Z,19.4
2018-06-24T05:24:56.528Z,19.4
2018-06-24T05:25:47.166Z,19.4
2018-06-24T05:26:36.977Z,19.4
2018-06-24T05:27:26.475Z,19.4
2018-06-24T05:28:16.865Z,19.4
2018-06-24T05:29:06.344Z,19.4
2018-06-24T05:29:56.738Z,19.4
2018-06-24T05:30:46.813Z,19.4
2018-06-24T05:31:36.020Z,19.4
2018-06-24T05:32:26.864Z,19.4
2018-06-24T05:33:17.267Z,19.4
2018-06-24T05:34:07.072Z,19.4
2018-06-24T05:34:55.967Z,19.4
2018-06-24T05:35:47.891Z,19.4
2018-06-24T05:36:37.935Z,19.4
2018-06-24T05:37:27.214Z,19.4
2018-06-24T05:38:17.841Z,19.4
2018-06-24T05:39:07.584Z,19.4
2018-06-24T05:39:57.776Z,19.4
2018-06-24T05:40:48.029Z,19.4
2018-06-24T05:41:37.467Z,19.4
2018-06-24T05:42:28.440Z,19.4
2018-06-24T05:43:18.785Z,19.4
2018-06-24T05:44:07.697Z,19.4
2018-06-24T05:44:58.057Z,19.4
2018-06-24T05:45:48.761Z,19.4
2018-06-24T05:46:37.947Z,19.4
2018-06-24T05:47:28.505Z,19.4
2018-06-24T05:48:18.574Z,19.4
2018-06-24T05:49:08.659Z,19.4
2018-06-24T05:49:57.902Z,19.4
2018-06-24T05:50:49.084Z,19.4
2018-06-24T05:51:38.825Z,19.4
2018-06-24T05:52:28.174Z,19.4
2018-06-24T05:53:18.122Z,19.4
2018-06-24T05:54:09.012Z,19.4
2018-06-24T05:54:59.093Z,19.4
2018-06-24T05:55:48.571Z,19.4
2018-06-24T05:56:39.186Z,19.4
2018-06-24T05:57:28.748Z,19.4
2018-06-24T05:58:19.089Z,19.4
2018-06-24T05:59:09.105Z,19.3
2018-06-24T05:59:59.194Z,19.3
2018-06-24T06:00:49.220Z,19.3
2018-06-24T06:01:39.798Z,19.3
2018-06-24T06:02:29.374Z,19.3
2018-06-24T06:03:19.463Z,19.3
2018-06-24T06:04:09.541Z,19.3
2018-06-24T06:05:00.139Z,19.3
2018-06-24T06:05:49.209Z,19.3
2018-06-24T06:06:39.984Z,19.3
2018-06-24T06:07:30.041Z,19.3
2018-06-24T06:08:20.103Z,19.3
2018-06-24T06:09:10.449Z,19.3
2018-06-24T06:10:00.104Z,19.2
2018-06-24T06:10:50.157Z,19.3
2018-06-24T06:11:40.141Z,19.2
2018-06-24T06:12:30.403Z,19.2
2018-06-24T06:13:20.267Z,19.2
2018-06-24T06:14:10.573Z,19.2
2018-06-24T06:15:00.675Z,19.2
2018-06-24T06:15:50.652Z,19.2
2018-06-24T06:16:40.457Z,19.2
2018-06-24T06:17:30.989Z,19.2
2018-06-24T06:18:21.150Z,19.1
2018-06-24T06:19:10.824Z,19.1
2018-06-24T06:20:00.960Z,19.1
2018-06-24T06:20:51.027Z,19.2
2018-06-24T06:21:41.016Z,19.1
2018-06-24T06:22:31.439Z,19.1
2018-06-24T06:23:20.886Z,19.1
2018-06-24T06:24:11.373Z,19.1
2018-06-24T06:25:01.059Z,19.1
2018-06-24T06:25:51.398Z,19.1
2018-06-24T06:26:41.711Z,19.1
2018-06-24T06:27:31.498Z,19.1
2018-06-24T06:28:21.535Z,19.1
2018-06-24T06:29:11.357Z,19.1
2018-06-24T06:30:01.525Z,19.1
2018-06-24T06:30:51.743Z,19.1
2018-06-24T06:31:42.093Z,19.1
2018-06-24T06:32:31.602Z,19.1
2018-06-24T06:33:21.162Z,19.1
2018-06-24T06:34:11.445Z,19.1
2018-06-24T06:35:01.788Z,19.1
2018-06-24T06:35:51.841Z,19.1
2018-06-24T06:36:42.141Z,19.1
2018-06-24T06:37:32.002Z,19.1
2018-06-24T06:38:22.633Z,19.1
2018-06-24T06:39:11.335Z,19.1
2018-06-24T06:40:02.745Z,19.1
2018-06-24T06:40:52.580Z,19.1
2018-06-24T06:41:41.722Z,19.1
2018-06-24T06:42:32.384Z,19.1
2018-06-24T06:43:22.666Z,19.1
2018-06-24T06:44:11.926Z,19.1
2018-06-24T06:45:05.274Z,19.1
2018-06-24T06:45:54.341Z,19.1
2018-06-24T06:46:42.118Z,19.1
2018-06-24T06:47:33.088Z,19.1
2018-06-24T06:48:22.808Z,19.1
2018-06-24T06:49:13.443Z,19.1
2018-06-24T06:50:01.811Z,19.1
2018-06-24T06:50:53.590Z,19.1
2018-06-24T06:51:43.059Z,19.1
2018-06-24T06:52:32.893Z,19.1
2018-06-24T06:53:22.248Z,19.1
2018-06-24T06:54:12.993Z,19.1
2018-06-24T06:55:03.658Z,19.1
2018-06-24T06:55:52.848Z,19.1
2018-06-24T06:56:42.590Z,19.1
2018-06-24T06:57:32.845Z,19.1
2018-06-24T06:58:23.577Z,19.1
2018-06-24T06:59:13.072Z,19.1
2018-06-24T07:00:03.909Z,19.1
2018-06-24T07:00:53.776Z,19.1
2018-06-24T07:01:43.620Z,19.1
2018-06-24T07:02:33.865Z,19.1
2018-06-24T07:03:25.158Z,19.1
2018-06-24T07:04:14.338Z,19.1
2018-06-24T07:05:03.503Z,19.1
2018-06-24T07:05:55.358Z,19.1
2018-06-24T07:06:44.225Z,19.1
2018-06-24T07:07:34.840Z,19.1
2018-06-24T07:08:24.622Z,19.1
2018-06-24T07:09:14.382Z,19.1
2018-06-24T07:10:04.156Z,19.1
2018-06-24T07:10:54.249Z,19.1
2018-06-24T07:11:44.431Z,19.1
2018-06-24T07:12:33.871Z,19.1
2018-06-24T07:13:24.147Z,19.1
2018-06-24T07:14:13.988Z,19.1
2018-06-24T07:15:04.834Z,19.1
2018-06-24T07:15:54.952Z,19
2018-06-24T07:16:44.434Z,19.1
2018-06-24T07:17:35.036Z,19
2018-06-24T07:18:24.132Z,19
2018-06-24T07:19:15.021Z,19.1
2018-06-24T07:20:04.946Z,19.1
2018-06-24T07:20:55.109Z,19.1
2018-06-24T07:21:45.692Z,19.1
2018-06-24T07:22:34.653Z,19.1
2018-06-24T07:23:23.801Z,19.1
2018-06-24T07:24:14.800Z,19.1
2018-06-24T07:25:05.070Z,19.1
2018-06-24T07:25:55.963Z,19.1
2018-06-24T07:26:45.171Z,19.1
2018-06-24T07:27:35.837Z,19.1
2018-06-24T07:28:26.381Z,19.1
2018-06-24T07:29:15.611Z,19.1
2018-06-24T07:30:06.348Z,19.1
2018-06-24T07:30:56.585Z,19.1
2018-06-24T07:31:45.810Z,19.1
2018-06-24T07:32:36.175Z,19.1
2018-06-24T07:33:27.478Z,19.1
2018-06-24T07:34:16.275Z,19.1
2018-06-24T07:35:06.089Z,19.1
2018-06-24T07:35:56.708Z,19.1
2018-06-24T07:36:46.455Z,19.1
2018-06-24T07:37:36.564Z,19.1
2018-06-24T07:38:26.596Z,19.1
2018-06-24T07:39:18.137Z,19.1
2018-06-24T07:40:06.761Z,19.1
2018-06-24T07:40:56.336Z,19.1
2018-06-24T07:41:46.393Z,19.1
2018-06-24T07:42:36.108Z,19.1
2018-06-24T07:43:26.258Z,19.1
2018-06-24T07:44:17.286Z,19.1
2018-06-24T07:45:06.883Z,19.1
2018-06-24T07:45:56.926Z,19.1
2018-06-24T07:46:46.527Z,19.1
2018-06-24T07:47:37.105Z,19.1
2018-06-24T07:48:26.671Z,19.2
2018-06-24T07:49:17.397Z,19.1
2018-06-24T07:50:07.261Z,19.2
2018-06-24T07:50:57.527Z,19.1
2018-06-24T07:51:47.334Z,19.2
2018-06-24T07:52:38.234Z,19.2
2018-06-24T07:53:27.701Z,19.2
2018-06-24T07:54:18.046Z,19.2
2018-06-24T07:55:07.857Z,19.2
2018-06-24T07:55:58.169Z,19.2
2018-06-24T07:56:47.973Z,19.2
2018-06-24T07:57:38.418Z,19.2
2018-06-24T07:58:28.371Z,19.1
2018-06-24T07:59:18.737Z,19.1
2018-06-24T08:00:08.235Z,19.1
2018-06-24T08:00:58.566Z,19.1
2018-06-24T08:01:48.355Z,19.1
2018-06-24T08:02:38.131Z,19.2
2018-06-24T08:03:30.128Z,19.2
2018-06-24T08:04:18.628Z,19.2
2018-06-24T08:05:08.898Z,19.2
2018-06-24T08:05:58.952Z,19.2
2018-06-24T08:06:48.727Z,19.2
2018-06-24T08:07:38.787Z,19.2
2018-06-24T08:08:29.414Z,19.2
2018-06-24T08:09:17.834Z,19.2
2018-06-24T08:10:09.009Z,19.2
2018-06-24T08:10:59.315Z,19.2
2018-06-24T08:11:49.462Z,19.2
2018-06-24T08:12:39.749Z,19.2
2018-06-24T08:13:29.389Z,19.2
2018-06-24T08:14:19.294Z,19.2
2018-06-24T08:15:09.954Z,19.2
2018-06-24T08:15:58.853Z,19.2
2018-06-24T08:16:49.539Z,19.2
2018-06-24T08:17:39.584Z,19.2
2018-06-24T08:18:30.144Z,19.2
2018-06-24T08:19:19.675Z,19.2
2018-06-24T08:20:09.792Z,19.2
2018-06-24T08:21:00.071Z,19.2
2018-06-24T08:21:50.419Z,19.2
2018-06-24T08:22:40.056Z,19.2
2018-06-24T08:23:29.720Z,19.2
2018-06-24T08:24:20.371Z,19.2
2018-06-24T08:25:09.601Z,19.2
2018-06-24T08:26:00.189Z,19.2
2018-06-24T08:26:50.516Z,19.2
2018-06-24T08:27:39.839Z,19.2
2018-06-24T08:28:30.630Z,19.2
2018-06-24T08:29:19.136Z,19.2
2018-06-24T08:30:10.830Z,19.2
2018-06-24T08:31:01.143Z,19.2
2018-06-24T08:31:51.476Z,19.2
2018-06-24T08:32:40.719Z,19.2
2018-06-24T08:33:30.749Z,19.2
2018-06-24T08:34:21.081Z,19.2
2018-06-24T08:35:10.398Z,19.2
2018-06-24T08:35:59.871Z,19.2
2018-06-24T08:36:51.314Z,19.2
2018-06-24T08:37:40.604Z,19.3
2018-06-24T08:38:31.146Z,19.3
2018-06-24T08:39:21.581Z,19.3
2018-06-24T08:40:10.988Z,19.3
2018-06-24T08:40:59.775Z,19.3
2018-06-24T08:41:51.946Z,19.3
2018-06-24T08:42:41.749Z,19.3
2018-06-24T08:43:31.576Z,19.3
2018-06-24T08:44:22.104Z,19.3
2018-06-24T08:45:12.222Z,19.3
2018-06-24T08:46:00.721Z,19.3
2018-06-24T08:46:51.078Z,19.3
2018-06-24T08:47:41.965Z,19.3
2018-06-24T08:48:30.620Z,19.3
2018-06-24T08:49:21.834Z,19.3
2018-06-24T08:50:11.645Z,19.3
2018-06-24T08:51:02.154Z,19.3
2018-06-24T08:51:50.433Z,19.3
2018-06-24T08:52:41.745Z,19.3
2018-06-24T08:53:30.962Z,19.3
2018-06-24T08:54:22.882Z,19.3
2018-06-24T08:55:12.318Z,19.3
2018-06-24T08:56:01.197Z,19.3
2018-06-24T08:56:52.635Z,19.4
2018-06-24T08:57:41.340Z,19.3
2018-06-24T08:58:31.647Z,19.3
2018-06-24T08:59:22.581Z,19.3
2018-06-24T09:00:12.120Z,19.4
2018-06-24T09:01:02.968Z,19.4
2018-06-24T09:01:52.510Z,19.4
2018-06-24T09:02:42.511Z,19.4
2018-06-24T09:03:31.926Z,19.4
2018-06-24T09:04:22.362Z,19.4
2018-06-24T09:05:13.260Z,19.4
2018-06-24T09:06:03.090Z,19.4
2018-06-24T09:06:51.752Z,19.4
2018-06-24T09:07:42.447Z,19.4
2018-06-24T09:08:33.263Z,19.4
2018-06-24T09:09:23.297Z,19.4
2018-06-24T09:10:13.340Z,19.4
2018-06-24T09:11:03.437Z,19.4
2018-06-24T09:11:53.198Z,19.4
2018-06-24T09:12:43.580Z,19.4
2018-06-24T09:13:33.120Z,19.4
2018-06-24T09:14:23.300Z,19.4
